Time;durP1;ratioP1;P1;durP2;ratioP2;P2;SDS_P1;SDS_P2;PMS_P1;PMS_P2;Temp;Humidity;BMP_temperature;BMP_pressure;BME280_temperature;BME280_humidity;BME280_pressure;Samples;Min_cycle;Max_cycle;Signal;HPM_P1;HPM_P2
2022/06/15 00:00:38;;;;;;;7.65;3.75;;;;;;;13.02;83.21;68212.41;4987376;28;20062;-78
2022/06/15 00:03:04;;;;;;;5.78;3.67;;;;;;;13.00;82.95;68217.56;4987579;28;20125;-78
2022/06/15 00:05:30;;;;;;;7.07;3.60;;;;;;;13.02;83.07;68219.84;4986936;28;20034;-77
2022/06/15 00:07:56;;;;;;;6.60;3.50;;;;;;;12.96;83.05;68213.59;5001122;28;20540;-77
2022/06/15 00:10:22;;;;;;;9.50;3.97;;;;;;;12.94;83.52;68211.31;5004142;28;20038;-79
2022/06/15 00:12:48;;;;;;;7.40;3.90;;;;;;;12.94;83.57;68210.75;4986707;28;20093;-77
2022/06/15 00:15:13;;;;;;;8.15;4.20;;;;;;;;;;4988524;28;20078;-78
2022/06/15 00:17:40;;;;;;;9.95;5.00;;;;;;;12.86;83.32;68202.22;4988445;28;20048;-78
2022/06/15 00:20:06;;;;;;;6.18;3.90;;;;;;;12.78;83.67;68193.13;4988996;28;20432;-78
2022/06/15 00:22:31;;;;;;;5.70;3.70;;;;;;;12.74;83.74;68191.81;4987120;28;20093;-78
2022/06/15 00:24:57;;;;;;;9.75;4.30;;;;;;;12.75;83.97;68190.28;4981966;28;20042;-78
2022/06/15 00:27:22;;;;;;;8.73;4.25;;;;;;;;;;4972554;28;20402;-78
2022/06/15 00:29:47;;;;;;;8.93;4.15;;;;;;;12.74;83.87;68191.81;4965716;28;20051;-79
2022/06/15 00:32:13;;;;;;;10.38;4.40;;;;;;;12.73;83.72;68188.00;4974450;28;20048;-78
2022/06/15 00:34:38;;;;;;;7.35;4.35;;;;;;;12.67;83.94;68181.19;5002394;28;20043;-78
2022/06/15 00:37:05;;;;;;;11.15;4.80;;;;;;;12.62;84.08;68176.06;4987482;28;20046;-79
2022/06/15 00:39:32;;;;;;;8.40;4.75;;;;;;;;;;4987905;28;20129;-77
2022/06/15 00:41:58;;;;;;;9.43;4.45;;;;;;;12.60;84.51;68168.47;4987112;28;20065;-78
2022/06/15 00:44:26;;;;;;;9.27;4.53;;;;;;;;;;4989395;28;20038;-77
2022/06/15 00:46:59;;;;;;;14.48;4.90;;;;;;;12.60;84.41;68173.22;4979599;28;20053;-77
2022/06/15 00:49:31;;;;;;;8.85;4.32;;;;;;;12.51;84.88;68155.00;5003629;28;20038;-78
2022/06/15 00:52:03;;;;;;;7.75;4.53;;;;;;;12.49;84.99;68163.41;4999507;28;20055;-79
2022/06/15 00:54:29;;;;;;;7.55;4.28;;;;;;;;;;4988425;28;20041;-78
2022/06/15 00:56:55;;;;;;;11.07;4.90;;;;;;;12.45;85.30;68150.84;4988172;28;20046;-78
2022/06/15 00:59:33;;;;;;;8.38;4.85;;;;;;;12.44;85.62;68157.72;4988841;28;20034;-78
2022/06/15 01:01:59;;;;;;;9.85;4.75;;;;;;;12.45;85.26;68156.75;5002018;28;20458;-78
2022/06/15 01:04:25;;;;;;;11.10;5.32;;;;;;;;;;4987965;28;20058;-78
2022/06/15 01:07:04;;;;;;;8.35;4.63;;;;;;;12.45;85.61;68151.41;4985919;28;20497;-78
2022/06/15 01:09:34;;;;;;;9.75;4.68;;;;;;;12.45;85.91;68156.19;4986710;28;20050;-79
2022/06/15 01:12:17;;;;;;;9.27;4.80;;;;;;;12.42;85.45;68153.91;4986928;28;20042;-78
2022/06/15 01:15:12;;;;;;;8.95;5.00;;;;;;;12.32;85.94;68145.22;4985516;28;20108;-77
2022/06/15 01:18:02;;;;;;;7.97;4.85;;;;;;;12.30;86.14;68140.28;4986344;28;20050;-78
2022/06/15 01:20:33;;;;;;;8.40;5.10;;;;;;;;;;5000587;28;20457;-79
2022/06/15 01:23:16;;;;;;;10.40;4.88;;;;;;;12.32;85.83;68142.56;4965263;28;20050;-78
2022/06/15 01:25:49;;;;;;;9.68;5.00;;;;;;;12.28;85.78;68129.97;4963332;28;20098;-78
2022/06/15 01:28:46;;;;;;;10.25;5.03;;;;;;;12.26;86.42;68130.41;4986346;28;20054;-77
2022/06/15 01:31:26;;;;;;;8.77;4.85;;;;;;;12.22;86.60;68131.19;4984937;28;20724;-78
2022/06/15 01:34:06;;;;;;;9.63;5.20;;;;;;;;;;4986224;28;20089;-78
2022/06/15 01:36:44;;;;;;;10.25;5.30;;;;;;;12.18;86.67;68126.63;4985385;28;20065;-78
2022/06/15 01:39:27;;;;;;;9.93;5.88;;;;;;;12.11;86.98;68118.69;4980268;28;20038;-78
2022/06/15 01:42:04;;;;;;;10.35;4.70;;;;;;;;;;4984380;28;20090;-79
2022/06/15 01:44:40;;;;;;;9.98;5.10;;;;;;;12.08;87.13;68115.84;4987195;28;20042;-77
2022/06/15 01:47:14;;;;;;;8.48;4.82;;;;;;;12.07;86.89;68114.13;4979544;28;20594;-78
2022/06/15 01:49:46;;;;;;;9.73;5.28;;;;;;;12.03;87.26;68110.16;4985600;28;20038;-78
2022/06/15 01:52:15;;;;;;;9.82;5.75;;;;;;;12.01;87.90;68112.66;4994133;28;20042;-77
2022/06/15 01:54:45;;;;;;;10.07;5.17;;;;;;;11.96;87.70;68102.78;4986516;28;20697;-78
2022/06/15 01:57:14;;;;;;;9.15;5.63;;;;;;;11.96;87.99;68097.44;4982355;28;20046;-78
2022/06/15 01:59:46;;;;;;;9.35;5.05;;;;;;;11.91;88.29;68096.53;4985146;28;20042;-78
2022/06/15 02:02:25;;;;;;;9.70;5.60;;;;;;;11.90;88.17;68095.94;4987958;28;20049;-78
2022/06/15 02:04:53;;;;;;;8.27;5.13;;;;;;;;;;4990344;28;20046;-78
2022/06/15 02:07:31;;;;;;;8.93;5.70;;;;;;;;;;4991346;28;20061;-78
2022/06/15 02:09:59;;;;;;;9.35;5.82;;;;;;;;;;4981602;28;20046;-78
2022/06/15 02:12:36;;;;;;;10.07;6.07;;;;;;;11.79;89.01;68088.78;4990651;28;20093;-78
2022/06/15 02:15:04;;;;;;;9.60;5.72;;;;;;;11.82;89.05;68089.50;4974392;28;20137;-78
2022/06/15 02:17:36;;;;;;;10.73;5.20;;;;;;;;;;4990092;28;20045;-78
2022/06/15 02:20:11;;;;;;;10.40;5.93;;;;;;;11.77;88.74;68080.59;5004581;28;20049;-77
2022/06/15 02:22:39;;;;;;;9.23;5.93;;;;;;;11.72;89.22;68076.06;4989508;28;20116;-76
2022/06/15 02:25:08;;;;;;;10.15;5.32;;;;;;;;;;4989572;28;20046;-78
2022/06/15 02:27:36;;;;;;;12.93;6.13;;;;;;;11.73;89.30;68076.63;4990643;28;20038;-78
2022/06/15 02:30:07;;;;;;;7.28;5.35;;;;;;;11.68;89.26;68070.94;4986956;28;20034;-78
2022/06/15 02:32:36;;;;;;;8.30;5.78;;;;;;;11.61;89.81;68063.56;4988887;28;20522;-78
2022/06/15 02:35:02;;;;;;;12.00;6.28;;;;;;;;;;4998585;28;20130;-78
2022/06/15 02:37:27;;;;;;;12.07;6.00;;;;;;;;;;4965319;28;20845;-78
2022/06/15 02:39:52;;;;;;;11.15;5.90;;;;;;;11.58;90.08;68059.59;4991572;28;20809;-77
2022/06/15 02:42:28;;;;;;;9.48;5.43;;;;;;;11.58;90.13;68059.59;4973053;28;20074;-78
2022/06/15 02:44:58;;;;;;;11.05;5.85;;;;;;;11.53;89.96;68055.03;4995333;28;20086;-77
2022/06/15 02:47:27;;;;;;;8.25;5.75;;;;;;;11.48;90.17;68052.03;4989160;28;20049;-77
2022/06/15 02:49:52;;;;;;;10.35;6.15;;;;;;;;;;5004587;28;20507;-77
2022/06/15 02:52:20;;;;;;;9.52;5.80;;;;;;;;;;4996697;28;20042;-78
2022/06/15 02:54:50;;;;;;;13.07;6.07;;;;;;;;;;4990162;28;20108;-77
2022/06/15 02:57:17;;;;;;;8.45;6.28;;;;;;;11.37;90.91;68031.56;4988808;28;20050;-76
2022/06/15 02:59:45;;;;;;;9.60;6.28;;;;;;;11.36;91.19;68037.84;4986908;28;20039;-78
2022/06/15 03:02:14;;;;;;;10.15;6.68;;;;;;;11.34;90.95;68036.13;4968529;28;20513;-78
2022/06/15 03:04:40;;;;;;;;;;;;;;;11.33;91.34;68035.00;4988481;28;20034;-77
2022/06/15 03:07:05;;;;;;;11.32;6.25;;;;;;;11.23;92.00;68026.31;4989141;28;19922;-77
2022/06/15 03:09:30;;;;;;;9.25;5.90;;;;;;;11.24;91.93;68022.13;4988721;28;20042;-77
2022/06/15 03:11:56;;;;;;;9.75;6.13;;;;;;;11.24;92.00;68028.00;4988454;28;20050;-78
2022/06/15 03:14:21;;;;;;;11.93;6.22;;;;;;;11.26;91.38;68027.63;5003457;28;20506;-77
2022/06/15 03:16:49;;;;;;;9.30;6.43;;;;;;;;;;5003706;28;20045;-77
2022/06/15 03:19:14;;;;;;;11.10;5.93;;;;;;;11.33;91.59;68027.00;4989614;28;20058;-77
2022/06/15 03:21:40;;;;;;;9.65;6.30;;;;;;;11.34;92.24;68033.47;4987164;28;20058;-77
2022/06/15 03:24:06;;;;;;;10.90;6.03;;;;;;;11.37;91.49;68036.31;4990296;28;20048;-78
2022/06/15 03:26:32;;;;;;;12.27;6.18;;;;;;;11.36;91.33;68041.06;4988795;28;20035;-77
2022/06/15 03:28:57;;;;;;;11.77;6.18;;;;;;;11.38;91.39;68037.44;4989648;28;20042;-77
2022/06/15 03:31:23;;;;;;;8.45;5.85;;;;;;;11.39;91.62;68038.56;4987546;28;20042;-77
2022/06/15 03:33:48;;;;;;;11.88;6.20;;;;;;;11.36;91.59;68035.72;4982212;28;20038;-77
2022/06/15 03:36:14;;;;;;;8.75;6.70;;;;;;;11.37;91.94;68039.53;5001358;28;20030;-78
2022/06/15 03:38:39;;;;;;;8.82;5.93;;;;;;;11.36;91.71;68041.06;4985342;28;20030;-78
2022/06/15 03:41:05;;;;;;;8.43;5.57;;;;;;;11.35;91.80;68037.28;4989429;28;20526;-78
2022/06/15 03:43:30;;;;;;;9.85;6.65;;;;;;;;;;4987790;28;20038;-78
2022/06/15 03:45:56;;;;;;;10.10;6.22;;;;;;;11.34;92.56;68038.81;4989120;28;20046;-77
2022/06/15 03:48:22;;;;;;;11.60;6.63;;;;;;;11.29;92.09;68028.34;4987650;28;20034;-77
2022/06/15 03:50:48;;;;;;;10.07;6.50;;;;;;;11.32;92.64;68030.63;4998751;28;20050;-78
2022/06/15 03:53:13;;;;;;;10.95;6.88;;;;;;;11.32;92.47;68030.63;4985014;28;20401;-77
2022/06/15 03:55:40;;;;;;;9.00;6.32;;;;;;;11.32;92.67;68033.31;5000479;28;20101;-78
2022/06/15 03:58:06;;;;;;;11.45;6.45;;;;;;;11.33;92.76;68031.75;4983019;28;20034;-78
2022/06/15 04:00:32;;;;;;;11.70;6.85;;;;;;;;;;4975900;28;20043;-78
2022/06/15 04:02:57;;;;;;;10.63;7.22;;;;;;;;;;4988059;28;20102;-81
2022/06/15 04:05:31;;;;;;;10.82;7.13;;;;;;;11.33;92.99;68026.44;4977072;28;20051;-79
2022/06/15 04:11:00;;;;;;;9.27;6.38;;;;;;;11.34;92.89;68033.47;4960422;28;20130;-77
2022/06/15 04:13:26;;;;;;;11.30;7.47;;;;;;;11.39;93.05;68039.13;4964201;28;20409;-79
2022/06/15 04:15:52;;;;;;;9.68;6.95;;;;;;;;;;4964042;28;20046;-78
2022/06/15 04:18:17;;;;;;;10.10;6.60;;;;;;;11.42;93.45;68041.97;4991260;28;20605;-78
2022/06/15 04:20:42;;;;;;;12.02;7.50;;;;;;;11.41;93.42;68041.41;4987487;28;20118;-77
2022/06/15 04:23:10;;;;;;;10.88;7.00;;;;;;;11.42;93.34;68041.97;4986335;28;20053;-79
2022/06/15 04:25:44;;;;;;;12.75;8.05;;;;;;;11.40;94.07;68042.38;4986448;28;20049;-78
2022/06/15 04:28:12;;;;;;;12.95;7.10;;;;;;;11.40;94.28;68039.72;4988823;28;20043;-77
2022/06/15 04:30:37;;;;;;;11.82;7.88;;;;;;;11.42;94.55;68042.56;4986531;28;20568;-78
2022/06/15 04:33:03;;;;;;;11.50;7.80;;;;;;;11.47;94.29;68048.22;4979650;28;20042;-78
2022/06/15 04:35:29;;;;;;;11.70;7.47;;;;;;;11.49;94.49;68053.16;4989474;28;20133;-78
2022/06/15 04:37:55;;;;;;;9.88;7.25;;;;;;;11.57;93.41;68058.47;4969094;28;20687;-78
2022/06/15 04:40:20;;;;;;;9.77;7.60;;;;;;;11.67;93.39;68069.81;4969812;28;20043;-78
2022/06/15 04:42:46;;;;;;;10.88;7.22;;;;;;;11.72;93.09;68075.50;4959153;28;20177;-81
2022/06/15 04:45:14;;;;;;;11.80;7.55;;;;;;;11.79;92.92;68082.88;4965928;28;20046;-78
2022/06/15 04:47:39;;;;;;;11.07;7.30;;;;;;;11.85;92.75;68090.28;4967475;28;20030;-78
2022/06/15 04:50:06;;;;;;;12.75;7.07;;;;;;;11.87;92.54;68094.66;4969254;28;20034;-78
2022/06/15 04:52:32;;;;;;;9.55;6.90;;;;;;;11.93;92.69;68094.03;4964330;28;20159;-78
2022/06/15 04:54:57;;;;;;;12.13;7.05;;;;;;;;;;4956633;28;20043;-79
2022/06/15 04:57:23;;;;;;;11.98;6.60;;;;;;;;;;4954874;28;20039;-78
2022/06/15 04:59:48;;;;;;;8.82;6.20;;;;;;;12.14;91.91;68122.09;4969476;28;20074;-80
2022/06/15 05:02:14;;;;;;;10.48;6.72;;;;;;;12.22;91.75;68131.19;4949950;28;20035;-77
2022/06/15 05:04:39;;;;;;;10.07;6.72;;;;;;;12.32;91.31;68147.88;4976722;28;20054;-78
2022/06/15 05:07:06;;;;;;;11.27;6.82;;;;;;;12.40;91.25;68143.63;5020404;23;20062;-84
2022/06/15 05:09:31;;;;;;;12.57;6.90;;;;;;;12.49;90.52;68161.31;5013290;28;20042;-85
2022/06/15 05:11:56;;;;;;;10.65;7.00;;;;;;;12.49;90.89;68161.31;5004296;28;20050;-85
2022/06/15 05:14:22;;;;;;;9.48;6.18;;;;;;;;;;5001762;28;20124;-86
2022/06/15 05:16:47;;;;;;;9.77;6.40;;;;;;;12.68;90.21;68182.31;5003897;28;20416;-84
2022/06/15 05:19:13;;;;;;;9.35;6.55;;;;;;;12.71;90.20;68188.41;4987656;28;20046;-85
2022/06/15 05:21:42;;;;;;;11.23;5.72;;;;;;;12.81;89.85;68201.88;4988587;28;20509;-86
2022/06/15 05:24:09;;;;;;;12.23;6.15;;;;;;;12.93;89.42;68210.19;5002978;28;20052;-85
2022/06/15 05:26:34;;;;;;;10.07;5.82;;;;;;;13.02;89.28;68219.84;4986356;28;20065;-85
2022/06/15 05:29:00;;;;;;;10.40;6.47;;;;;;;13.09;89.29;68230.50;4985759;28;20497;-86
2022/06/15 05:31:25;;;;;;;10.77;6.05;;;;;;;13.18;89.34;68238.06;4985427;28;20038;-86
2022/06/15 05:33:54;;;;;;;9.23;6.32;;;;;;;13.22;89.14;68242.59;4984611;28;20054;-86
2022/06/15 05:36:29;;;;;;;10.93;6.03;;;;;;;13.35;88.92;68256.25;4986285;28;20049;-86
2022/06/15 05:38:54;;;;;;;9.55;6.13;;;;;;;13.48;88.13;68271.03;4985252;28;20038;-86
2022/06/15 05:41:20;;;;;;;13.02;6.28;;;;;;;13.54;88.09;68277.88;4984692;28;20108;-86
2022/06/15 05:43:52;;;;;;;12.25;6.13;;;;;;;13.66;87.11;68285.59;4976307;28;20051;-87
2022/06/15 05:46:26;;;;;;;8.40;5.97;;;;;;;13.74;87.22;68302.72;4986764;28;20046;-86
2022/06/15 05:48:53;;;;;;;8.77;6.13;;;;;;;13.82;86.65;68309.16;4999861;28;20132;-87
2022/06/15 05:51:19;;;;;;;8.95;5.88;;;;;;;13.92;85.89;68319.97;4984304;28;20034;-87
2022/06/15 05:53:44;;;;;;;8.93;5.47;;;;;;;14.04;85.05;68328.28;4997171;28;20058;-87
2022/06/15 05:56:10;;;;;;;11.18;5.82;;;;;;;;;;4966167;28;20675;-87
2022/06/15 05:58:35;;;;;;;8.25;5.50;;;;;;;;;;4981642;28;20101;-88
2022/06/15 06:01:16;;;;;;;8.65;5.47;;;;;;;;;;4966910;28;20073;-90
2022/06/15 06:03:51;;;;;;;10.00;6.20;;;;;;;14.50;83.81;68379.50;4981469;28;21143;-88
2022/06/15 06:06:25;;;;;;;7.35;5.30;;;;;;;;;;4950251;28;20256;-89
2022/06/15 06:09:25;;;;;;;10.57;5.30;;;;;;;14.70;83.03;68407.06;4915170;28;20080;-90
2022/06/15 06:12:39;;;;;;;9.88;5.53;;;;;;;14.78;82.39;68416.16;4846042;29;20140;-89
2022/06/15 06:15:31;;;;;;;12.20;5.75;;;;;;;;;;4851633;29;20108;-89
2022/06/15 06:18:39;;;;;;;9.20;5.57;;;;;;;15.16;81.09;68452.38;4844639;29;20041;-89
2022/06/15 06:21:46;;;;;;;6.22;4.95;;;;;;;;;;4853709;29;20044;-89
2022/06/15 06:25:02;;;;;;;9.10;4.57;;;;;;;15.53;80.39;68494.53;4808387;29;20037;-89
2022/06/15 06:28:28;;;;;;;9.98;5.55;;;;;;;15.67;79.55;68509.34;4805204;29;20133;-90
2022/06/15 06:35:02;;;;;;;7.70;5.00;;;;;;;15.91;77.21;68542.09;4724341;30;20660;-90
2022/06/15 06:37:50;;;;;;;10.75;4.80;;;;;;;;;;4721688;30;20041;-90
2022/06/15 06:40:33;;;;;;;8.90;4.55;;;;;;;;;;4713852;30;20441;-90
2022/06/15 06:44:04;;;;;;;9.10;5.05;;;;;;;16.44;75.63;68601.34;4712064;30;20044;-91
2022/06/15 06:46:47;;;;;;;11.48;4.57;;;;;;;;;;4666006;30;20050;-90
2022/06/15 06:49:51;;;;;;;9.73;5.00;;;;;;;;;;4671827;30;20783;-90
2022/06/15 06:53:01;;;;;;;11.50;4.93;;;;;;;16.86;73.80;68642.75;4687527;30;20469;-91
2022/06/15 06:56:08;;;;;;;7.63;4.80;;;;;;;17.04;73.76;68662.16;4673548;30;20384;-89
2022/06/15 06:59:17;;;;;;;9.27;5.15;;;;;;;17.17;73.40;68681.78;4701973;30;20110;-90
2022/06/15 07:01:53;;;;;;;9.63;4.53;;;;;;;17.28;72.40;68694.88;4708952;30;20140;-91
2022/06/15 07:04:43;;;;;;;13.23;5.10;;;;;;;;;;4668227;30;20074;-90
2022/06/15 07:07:19;;;;;;;6.95;4.43;;;;;;;;;;4644138;30;20045;-90
2022/06/15 07:10:07;;;;;;;9.27;4.45;;;;;;;17.66;70.36;68731.16;4628077;30;20145;-90
2022/06/15 07:13:25;;;;;;;10.00;4.53;;;;;;;;;;4650861;30;20058;-91
2022/06/15 07:16:33;;;;;;;8.55;4.18;;;;;;;17.89;68.47;68757.44;4678424;30;20061;-90
2022/06/15 07:19:35;;;;;;;8.23;4.13;;;;;;;18.03;68.85;68778.78;4726192;30;20056;-91
2022/06/15 07:22:27;;;;;;;9.57;3.70;;;;;;;;;;4839815;23;20026;-92
2022/06/15 07:24:56;;;;;;;7.95;3.45;;;;;;;18.24;67.32;68796.81;5034215;28;20045;-91
2022/06/15 07:27:31;;;;;;;6.07;3.40;;;;;;;;;;4972602;28;20047;-91
2022/06/15 07:30:37;;;;;;;8.55;3.47;;;;;;;18.46;64.74;68821.34;4899614;29;20174;-91
2022/06/15 08:30:53;;;;;;;7.70;2.88;;;;;;;;;;4983824;28;20078;-87
2022/06/15 08:33:30;;;;;;;7.10;2.70;;;;;;;;;;4972286;28;20047;-87
2022/06/15 08:36:18;;;;;;;8.07;2.63;;;;;;;20.38;56.36;69035.06;4923464;29;20047;-89
2022/06/15 08:39:03;;;;;;;6.25;2.63;;;;;;;20.39;55.17;69036.78;4886716;29;20040;-87
2022/06/15 08:41:56;;;;;;;6.25;2.92;;;;;;;;;;4880006;29;20085;-88
2022/06/15 08:44:46;;;;;;;6.82;2.58;;;;;;;20.45;53.65;69043.06;4886697;29;20075;-87
2022/06/15 08:47:28;;;;;;;6.38;2.83;;;;;;;20.50;53.88;69046.66;4882641;29;20052;-86
2022/06/15 08:49:53;;;;;;;4.95;2.40;;;;;;;;;;4907687;29;20052;-86
2022/06/15 08:52:32;;;;;;;6.75;2.78;;;;;;;;;;4908226;29;20574;-86
2022/06/15 08:55:15;;;;;;;4.13;2.10;;;;;;;;;;4908754;29;20455;-87
2022/06/15 08:58:10;;;;;;;6.88;2.35;;;;;;;20.91;52.41;69094.56;4873417;29;20045;-88
2022/06/15 09:00:49;;;;;;;5.28;2.40;;;;;;;21.03;51.75;69105.59;4891132;29;20049;-88
2022/06/15 09:03:39;;;;;;;5.25;2.15;;;;;;;21.07;52.31;69118.28;4863269;29;20044;-88
2022/06/15 09:06:32;;;;;;;7.85;2.60;;;;;;;20.85;51.03;69087.69;4899041;29;20075;-89
2022/06/15 09:09:19;;;;;;;7.85;2.92;;;;;;;20.90;51.40;69099.41;4880445;29;20048;-87
2022/06/15 09:15:03;;;;;;;10.27;3.55;;;;;;;;;;4883852;29;20471;-88
2022/06/15 09:17:46;;;;;;;6.45;2.53;;;;;;;21.06;51.23;69111.72;4862593;29;20064;-87
2022/06/15 09:20:29;;;;;;;7.25;2.92;;;;;;;;;;4847710;29;20125;-88
2022/06/15 09:23:24;;;;;;;7.18;3.17;;;;;;;21.11;50.02;69114.72;4846546;29;20543;-88
2022/06/15 09:26:09;;;;;;;6.80;3.08;;;;;;;21.07;49.88;69110.16;4815765;29;20050;-87
2022/06/15 09:29:18;;;;;;;6.60;2.60;;;;;;;21.32;51.92;69140.91;4822724;29;20078;-87
2022/06/15 09:32:08;;;;;;;8.07;2.30;;;;;;;21.54;50.57;69164.94;4836930;29;20777;-87
2022/06/15 09:34:45;;;;;;;6.75;2.65;;;;;;;21.54;48.80;69162.25;4784037;29;20059;-87
2022/06/15 09:37:13;;;;;;;6.35;2.50;;;;;;;;;;4745511;29;20047;-88
2022/06/15 09:40:05;;;;;;;5.47;2.78;;;;;;;21.83;48.23;69192.72;4794406;29;20469;-88
2022/06/15 09:43:02;;;;;;;7.13;3.35;;;;;;;21.86;47.81;69201.56;4849466;29;20049;-87
2022/06/15 09:45:49;;;;;;;11.48;5.40;;;;;;;21.91;50.53;69203.44;4833207;29;20066;-88
2022/06/15 09:48:34;;;;;;;9.10;2.88;;;;;;;;;;4792391;29;20574;-87
2022/06/15 09:57:46;;;;;;;54.30;25.33;;;;;;;22.00;47.30;69217.03;4650644;29;3935541;-87
2022/06/15 10:00:25;;;;;;;;;;;;;;;;;;;;;
2022/06/15 10:03:19;;;;;;;6.97;3.05;;;;;;;22.09;45.97;69226.75;4776153;29;20107;-86
2022/06/15 10:05:59;;;;;;;5.73;3.06;;;;;;;;;;4316918;29;6078575;-88
2022/06/15 10:08:36;;;;;;;8.15;3.20;;;;;;;22.38;48.68;69256.69;4551865;29;4558638;-86
2022/06/15 10:11:18;;;;;;;6.43;3.10;;;;;;;22.43;47.42;69264.56;4143028;29;11902575;-88
2022/06/15 10:13:46;;;;;;;7.53;2.83;;;;;;;;;;4464381;29;7331351;-88
2022/06/15 10:19:33;;;;;;;6.03;3.20;;;;;;;22.74;45.61;69300.06;4802470;29;20039;-88
2022/06/15 10:22:43;;;;;;;15.85;4.55;;;;;;;22.80;47.97;69305.81;4778973;29;20058;-87
2022/06/15 10:25:25;;;;;;;10.15;3.33;;;;;;;22.94;47.77;69316.97;4795469;29;20039;-86
2022/06/15 10:28:17;;;;;;;8.90;3.00;;;;;;;23.15;47.42;69343.19;4704986;29;4017391;-88
2022/06/15 10:31:24;;;;;;;5.07;2.63;;;;;;;23.05;45.99;69329.03;4213586;29;14439381;-87
2022/06/15 10:34:31;;;;;;;11.00;2.88;;;;;;;;;;4724692;29;3995061;-86
2022/06/15 10:37:44;;;;;;;8.10;3.10;;;;;;;23.08;46.41;69337.91;4512825;29;5723214;-86
2022/06/15 10:43:43;;;;;;;10.07;2.58;;;;;;;23.06;43.65;69332.88;4555133;29;5828458;-86
2022/06/15 10:46:11;;;;;;;7.15;2.60;;;;;;;23.16;43.87;69344.34;4802447;29;20038;-86
2022/06/15 10:48:57;;;;;;;4.43;2.00;;;;;;;23.14;44.12;69344.75;4761575;29;2109629;-87
2022/06/15 10:51:55;;;;;;;4.68;2.17;;;;;;;22.83;42.12;69307.09;4702196;29;2545823;-87
2022/06/15 11:03:27;;;;;;;8.35;2.80;;;;;;;22.84;42.88;69308.22;4890897;29;20102;-88
2022/06/15 11:06:14;;;;;;;;;;;;;;;;;;;;;
2022/06/15 11:08:58;;;;;;;4.40;1.90;;;;;;;;;;4870912;29;20419;-87
2022/06/15 11:12:09;;;;;;;6.45;2.58;;;;;;;23.53;40.70;69382.88;4859949;29;20060;-88
2022/06/15 11:15:21;;;;;;;;;;;;;;;;;;;;;
2022/06/15 11:18:19;;;;;;;7.32;2.15;;;;;;;23.94;44.21;69428.16;4859458;29;20166;-87
2022/06/15 11:21:01;;;;;;;5.20;2.15;;;;;;;24.15;43.09;69454.38;4842110;29;20045;-86
2022/06/15 11:24:03;;;;;;;6.50;2.22;;;;;;;24.27;41.37;69465.41;4865907;29;20121;-88
2022/06/15 11:27:30;;;;;;;7.03;2.28;;;;;;;24.29;42.48;69467.72;4878385;29;20174;-88
2022/06/15 11:30:17;;;;;;;6.35;2.40;;;;;;;23.90;44.04;69426.88;4830168;29;20045;-88
2022/06/15 11:33:16;;;;;;;7.57;2.75;;;;;;;23.83;40.26;69421.56;4793984;29;20141;-88
2022/06/15 11:38:20;;;;;;;4.80;2.35;;;;;;;;;;4971808;28;20050;-76
2022/06/15 11:40:54;;;;;;;5.32;2.05;;;;;;;24.25;42.53;69463.13;4981387;28;20049;-76
2022/06/15 11:43:30;;;;;;;6.43;2.80;;;;;;;24.42;39.97;69482.03;4972969;28;20050;-77
2022/06/15 11:45:58;;;;;;;8.68;2.33;;;;;;;24.49;42.24;69490.09;4963761;28;20057;-77
2022/06/15 11:48:45;;;;;;;8.32;2.60;;;;;;;24.05;36.59;69438.63;4969043;28;20043;-77
2022/06/15 11:51:23;;;;;;;5.93;1.90;;;;;;;24.10;37.92;69447.06;4943218;28;20055;-77
2022/06/15 11:54:12;;;;;;;6.80;2.40;;;;;;;23.71;37.47;69402.97;4977209;28;20042;-77
2022/06/15 11:57:21;;;;;;;6.95;2.03;;;;;;;24.13;37.47;69452.09;4975029;28;20397;-76
2022/06/15 12:00:12;;;;;;;3.88;1.75;;;;;;;24.01;36.45;69436.75;4957026;28;20039;-76
2022/06/15 12:02:58;;;;;;;4.72;1.85;;;;;;;24.16;39.23;69455.53;4967282;28;20043;-77
2022/06/15 12:05:38;;;;;;;7.15;2.40;;;;;;;24.49;37.70;69495.53;4968993;28;20446;-77
2022/06/15 12:08:20;;;;;;;7.55;2.15;;;;;;;24.74;38.78;69516.06;4946166;28;20047;-75
2022/06/15 12:10:57;;;;;;;3.88;1.92;;;;;;;24.89;38.03;69535.41;4959561;28;20043;-76
2022/06/15 12:13:49;;;;;;;5.05;2.10;;;;;;;24.76;36.94;69523.78;4950104;29;20051;-76
2022/06/15 12:16:45;;;;;;;5.40;2.25;;;;;;;24.51;37.76;69495.69;4953133;28;20051;-76
2022/06/15 12:19:30;;;;;;;7.07;2.40;;;;;;;24.32;37.52;69476.59;4920006;29;20043;-76
2022/06/15 12:22:02;;;;;;;4.32;2.05;;;;;;;24.40;37.23;69483.06;4965768;28;20046;-76
2022/06/15 12:24:44;;;;;;;6.57;2.00;;;;;;;24.26;37.43;69467.00;4964561;28;20410;-77
2022/06/15 12:27:41;;;;;;;5.45;2.40;;;;;;;24.43;38.54;69489.25;4968881;28;20041;-76
2022/06/15 12:30:26;;;;;;;7.10;2.13;;;;;;;25.19;38.98;69569.25;4943552;28;20112;-78
2022/06/15 12:33:13;;;;;;;8.40;2.28;;;;;;;25.03;38.20;69553.63;4983065;28;20038;-76
2022/06/15 12:35:47;;;;;;;6.47;2.10;;;;;;;25.26;37.79;69578.84;4982617;28;20137;-76
2022/06/15 12:38:19;;;;;;;4.60;1.85;;;;;;;25.63;37.65;69618.00;4980068;28;20637;-76
2022/06/15 12:40:59;;;;;;;5.65;2.22;;;;;;;25.37;37.13;69592.06;4982237;28;20045;-78
2022/06/15 12:43:34;;;;;;;5.38;2.00;;;;;;;25.38;36.02;69589.91;4985398;28;20046;-78
2022/06/15 12:46:14;;;;;;;3.65;1.83;;;;;;;25.61;36.53;69619.03;4988127;28;20429;-78
2022/06/15 12:48:46;;;;;;;6.57;2.05;;;;;;;25.88;34.28;69646.16;4985483;28;20128;-77
2022/06/15 12:51:48;;;;;;;6.22;2.15;;;;;;;25.48;35.22;69600.81;4984720;28;20050;-77
2022/06/15 12:54:13;;;;;;;4.93;1.92;;;;;;;25.36;36.42;69590.91;4985109;28;20063;-76
2022/06/15 12:56:50;;;;;;;4.18;1.98;;;;;;;25.69;37.19;69627.63;4987445;28;20077;-77
2022/06/15 12:59:49;;;;;;;5.93;2.45;;;;;;;25.90;34.76;69642.44;4972895;28;20034;-77
2022/06/15 13:02:19;;;;;;;7.38;2.05;;;;;;;25.78;34.11;69635.25;4956550;28;20145;-76
2022/06/15 13:05:02;;;;;;;4.88;2.20;;;;;;;25.78;32.80;69637.97;4985160;28;20067;-77
2022/06/15 13:07:31;;;;;;;5.55;1.85;;;;;;;25.99;35.68;69663.66;4983143;28;20503;-77
2022/06/15 13:10:22;;;;;;;4.35;1.98;;;;;;;25.95;34.18;69656.34;4970669;28;20034;-76
2022/06/15 13:12:58;;;;;;;4.55;1.85;;;;;;;26.13;33.27;69676.44;4986110;28;20053;-77
2022/06/15 13:15:24;;;;;;;7.72;2.55;;;;;;;26.14;33.55;69680.31;4993435;28;20034;-77
2022/06/15 13:20:45;;;;;;;4.80;2.22;;;;;;;25.55;35.13;69611.56;4992648;28;20077;-78
2022/06/15 13:23:23;;;;;;;5.57;2.10;;;;;;;25.88;33.78;69646.72;4991160;28;20038;-78
2022/06/15 13:26:10;;;;;;;5.13;2.10;;;;;;;25.95;33.94;69653.63;4991282;28;20093;-76
2022/06/15 13:28:40;;;;;;;5.68;2.22;;;;;;;26.17;34.10;69681.59;4991170;28;20257;-75
2022/06/15 13:31:10;;;;;;;3.97;1.80;;;;;;;25.95;34.71;69654.22;4986846;28;20046;-77
2022/06/15 13:33:51;;;;;;;5.13;2.30;;;;;;;26.05;33.81;69665.66;4989966;28;20039;-76
2022/06/15 13:36:19;;;;;;;4.15;1.80;;;;;;;26.69;35.52;69736.88;4962039;28;20541;-76
2022/06/15 13:38:45;;;;;;;5.47;1.95;;;;;;;27.08;35.54;69783.25;4992331;28;20042;-78
2022/06/15 13:41:22;;;;;;;3.47;1.70;;;;;;;27.13;32.51;69791.72;4992123;28;20610;-78
2022/06/15 13:43:48;;;;;;;3.53;1.70;;;;;;;27.09;34.90;69782.25;4992822;28;20065;-77
2022/06/15 13:46:29;;;;;;;3.72;1.75;;;;;;;27.26;33.20;69797.91;5002697;28;20045;-78
2022/06/15 13:49:06;;;;;;;4.95;1.92;;;;;;;27.15;33.44;69789.16;4998082;28;20072;-77
2022/06/15 13:51:48;;;;;;;5.60;2.10;;;;;;;27.54;32.88;69835.56;4986049;28;20536;-77
2022/06/15 13:54:21;;;;;;;4.80;1.77;;;;;;;27.56;32.27;69832.38;4982602;28;20129;-78
2022/06/15 13:56:54;;;;;;;7.68;1.92;;;;;;;27.80;34.50;69861.56;4989665;28;20130;-78
2022/06/15 13:59:32;;;;;;;4.57;1.80;;;;;;;28.03;32.73;69888.00;4996189;28;20420;-77
2022/06/15 14:02:21;;;;;;;4.82;2.08;;;;;;;27.48;33.26;69828.66;4995750;28;20490;-77
2022/06/15 14:05:08;;;;;;;4.93;2.00;;;;;;;27.49;34.38;69829.22;4989377;28;20110;-77
2022/06/15 14:08:11;;;;;;;5.15;1.50;;;;;;;27.78;33.65;69864.72;4993075;28;20046;-78
2022/06/15 14:11:07;;;;;;;4.03;1.80;;;;;;;27.39;32.78;69815.56;4981229;28;20046;-77
2022/06/15 14:14:04;;;;;;;5.07;1.95;;;;;;;27.06;34.24;69780.97;4977117;28;20050;-77
2022/06/15 14:16:51;;;;;;;6.03;1.77;;;;;;;26.86;33.05;69758.56;4960475;28;20122;-77
2022/06/15 14:19:31;;;;;;;6.68;2.45;;;;;;;27.19;33.94;69793.19;4973320;28;20053;-78
2022/06/15 14:22:23;;;;;;;4.10;1.42;;;;;;;27.37;32.93;69816.03;4996006;28;20038;-78
2022/06/15 14:25:00;;;;;;;4.65;1.80;;;;;;;27.43;33.28;69820.19;4997631;28;20050;-78
2022/06/15 14:27:30;;;;;;;4.45;1.67;;;;;;;28.12;31.87;69898.34;5001582;28;20151;-78
2022/06/15 14:29:56;;;;;;;5.85;1.73;;;;;;;28.03;32.03;69888.00;4994321;28;20046;-78